Terminal Aerodrome Forecast
Issued by NWS Sterling, VA

Current Version | Previous Version | Text Only | Print | Product List | Glossary Off
Versions: 1 2 3 4 5 6 7 8 9 10 11 12 13 14

000
FTUS41 KLWX 221125
TAFMRB
TAF
KMRB 221125Z 2212/2312 30007KT P6SM SCT060 SCT130
     FM221300 31015G27KT P6SM SCT050
     FM230000 32010KT P6SM SKC
     FM230500 VRB03KT P6SM SKC=

USA.gov is the U.S. government's official web portal to all federal, state and local government web resources and services.